Time;durP1;ratioP1;P1;durP2;ratioP2;P2;SDS_P1;SDS_P2;PMS_P1;PMS_P2;Temp;Humidity;BMP_temperature;BMP_pressure;BME280_temperature;BME280_humidity;BME280_pressure;Samples;Min_cycle;Max_cycle;Signal;HPM_P1;HPM_P2
2021/06/24 00:00:54;;;;;;;4.57;1.80;;;22.50;52.20;;;;;;5035876;28;20112;-69
2021/06/24 00:03:23;;;;;;;3.70;1.48;;;22.50;52.20;;;;;;5034348;28;20028;-69
2021/06/24 00:05:48;;;;;;;4.57;1.30;;;22.50;52.20;;;;;;5035677;28;20033;-69
2021/06/24 00:08:14;;;;;;;4.43;1.67;;;22.50;52.20;;;;;;5035612;28;20074;-69
2021/06/24 00:10:42;;;;;;;3.53;1.48;;;22.50;52.20;;;;;;5035622;28;20075;-69
2021/06/24 00:13:08;;;;;;;4.63;1.80;;;22.50;52.20;;;;;;5035653;28;20029;-69
2021/06/24 00:15:35;;;;;;;3.90;1.23;;;22.50;52.20;;;;;;5035537;28;20244;-69
2021/06/24 00:18:01;;;;;;;5.63;2.00;;;22.50;52.20;;;;;;5035464;28;20029;-69
2021/06/24 00:20:27;;;;;;;4.05;1.52;;;22.40;52.20;;;;;;5035491;28;20048;-70
2021/06/24 00:22:52;;;;;;;3.72;1.67;;;22.40;52.20;;;;;;5035613;28;20369;-69
2021/06/24 00:25:18;;;;;;;4.72;1.58;;;22.40;52.30;;;;;;5035411;28;20025;-69
2021/06/24 00:27:44;;;;;;;3.65;1.33;;;22.40;52.30;;;;;;5035699;28;20026;-69
2021/06/24 00:30:11;;;;;;;2.92;1.50;;;22.40;52.30;;;;;;5033924;28;20032;-69
2021/06/24 00:32:37;;;;;;;4.93;1.58;;;22.40;52.30;;;;;;5035216;28;20416;-69
2021/06/24 00:35:03;;;;;;;3.78;1.52;;;22.40;52.30;;;;;;5035153;28;20028;-69
2021/06/24 00:37:29;;;;;;;4.68;1.65;;;22.40;52.30;;;;;;5035082;28;20083;-69
2021/06/24 00:39:56;;;;;;;2.97;1.30;;;22.40;52.30;;;;;;5034975;28;20060;-69
2021/06/24 00:42:22;;;;;;;4.03;1.42;;;22.40;52.30;;;;;;5035057;28;20500;-69
2021/06/24 00:44:48;;;;;;;3.25;1.65;;;22.30;52.30;;;;;;5034927;28;20128;-69
2021/06/24 00:47:14;;;;;;;2.85;1.35;;;22.30;52.30;;;;;;5017746;28;20068;-69
2021/06/24 00:49:39;;;;;;;3.65;1.50;;;22.40;52.30;;;;;;5034959;28;20017;-69
2021/06/24 00:52:05;;;;;;;3.42;1.70;;;22.30;52.30;;;;;;5017083;28;20032;-69
2021/06/24 00:54:31;;;;;;;3.92;1.45;;;22.30;52.30;;;;;;5034998;28;20022;-69
2021/06/24 00:56:56;;;;;;;3.72;1.50;;;22.30;52.40;;;;;;5035067;28;20049;-69
2021/06/24 00:59:22;;;;;;;4.43;1.55;;;22.40;52.40;;;;;;5033730;28;20045;-69
2021/06/24 01:01:48;;;;;;;3.90;1.33;;;22.30;52.40;;;;;;5034631;28;20017;-70
2021/06/24 01:04:21;;;;;;;4.72;1.33;;;22.30;52.40;;;;;;5034461;28;20435;-69
2021/06/24 01:06:51;;;;;;;3.83;1.20;;;22.40;52.40;;;;;;5034584;28;20355;-69
2021/06/24 01:09:17;;;;;;;4.20;1.88;;;22.30;52.40;;;;;;5034754;28;20111;-69
2021/06/24 01:11:42;;;;;;;3.22;1.30;;;22.30;52.40;;;;;;5034516;28;20489;-69
2021/06/24 01:14:09;;;;;;;2.50;1.02;;;22.30;52.40;;;;;;5034513;28;20029;-69
2021/06/24 01:16:35;;;;;;;7.68;1.70;;;22.30;52.40;;;;;;5016727;28;20028;-69
2021/06/24 01:19:01;;;;;;;4.00;1.40;;;22.30;52.50;;;;;;5034234;28;20035;-69
2021/06/24 01:21:27;;;;;;;2.97;1.30;;;22.30;52.50;;;;;;5016605;28;20032;-69
2021/06/24 01:23:53;;;;;;;3.70;1.40;;;22.20;52.50;;;;;;5034266;28;20480;-69
2021/06/24 01:26:19;;;;;;;3.15;1.38;;;22.20;52.50;;;;;;5034209;28;20029;-69
2021/06/24 01:28:45;;;;;;;3.50;1.40;;;22.20;52.50;;;;;;5034244;28;20505;-70
2021/06/24 01:31:11;;;;;;;4.30;1.42;;;22.20;52.50;;;;;;5034130;28;20064;-69
2021/06/24 01:33:37;;;;;;;3.17;1.40;;;22.20;52.50;;;;;;5016268;28;20022;-69
2021/06/24 01:36:04;;;;;;;4.45;1.73;;;22.20;52.50;;;;;;5034053;28;20025;-69
2021/06/24 01:38:31;;;;;;;4.72;1.65;;;22.20;52.50;;;;;;5033983;28;20043;-69
2021/06/24 01:40:57;;;;;;;2.97;1.40;;;22.20;52.50;;;;;;5033908;28;20025;-70
2021/06/24 01:43:23;;;;;;;4.45;1.60;;;22.20;52.50;;;;;;5034156;28;20132;-69
2021/06/24 01:45:54;;;;;;;2.67;1.33;;;22.20;52.50;;;;;;5025965;28;20080;-70
2021/06/24 01:48:22;;;;;;;4.82;1.60;;;22.20;52.60;;;;;;5033847;28;20432;-69
2021/06/24 01:50:48;;;;;;;3.50;1.90;;;22.20;52.60;;;;;;5033908;28;20021;-69
2021/06/24 01:53:14;;;;;;;3.03;1.35;;;22.20;52.60;;;;;;5033903;28;20495;-69
2021/06/24 01:55:42;;;;;;;2.45;1.38;;;22.20;52.60;;;;;;5032386;28;20052;-69
2021/06/24 01:58:12;;;;;;;4.15;1.67;;;22.10;52.60;;;;;;5033511;28;20385;-69
2021/06/24 02:00:41;;;;;;;3.80;1.52;;;22.20;52.60;;;;;;5033621;28;20014;-69
2021/06/24 02:03:07;;;;;;;2.78;1.42;;;22.20;52.60;;;;;;5033632;28;20056;-69
2021/06/24 02:05:32;;;;;;;4.90;1.67;;;22.20;52.60;;;;;;5033744;28;20151;-69
2021/06/24 02:07:58;;;;;;;2.60;1.40;;;22.20;52.60;;;;;;5033510;28;20021;-70
2021/06/24 02:10:24;;;;;;;5.07;1.60;;;22.10;52.60;;;;;;5033457;28;20084;-70
2021/06/24 02:12:49;;;;;;;3.28;1.30;;;22.10;52.60;;;;;;5033527;28;20022;-70
2021/06/24 02:15:15;;;;;;;5.05;1.58;;;22.10;52.60;;;;;;5031960;28;20334;-69
2021/06/24 02:17:41;;;;;;;4.03;1.50;;;22.10;52.60;;;;;;5033251;28;20083;-69
2021/06/24 02:20:11;;;;;;;5.18;1.70;;;22.10;52.70;;;;;;5033343;28;20452;-69
2021/06/24 02:22:37;;;;;;;3.00;1.45;;;22.10;52.70;;;;;;5033405;28;20103;-69
2021/06/24 02:25:07;;;;;;;2.97;1.45;;;22.10;52.70;;;;;;5033168;28;20389;-69
2021/06/24 02:27:32;;;;;;;5.28;1.48;;;22.10;52.70;;;;;;5033072;28;20053;-69
2021/06/24 02:29:58;;;;;;;3.83;1.40;;;22.10;52.70;;;;;;5033105;28;20022;-69
2021/06/24 02:32:24;;;;;;;3.17;1.38;;;22.10;52.70;;;;;;5033061;28;20025;-69
2021/06/24 02:34:50;;;;;;;3.25;1.38;;;22.00;52.70;;;;;;5033053;28;20029;-69
2021/06/24 02:37:16;;;;;;;4.22;1.55;;;22.10;52.70;;;;;;5032983;28;20025;-69
2021/06/24 02:39:42;;;;;;;4.35;1.70;;;22.10;52.70;;;;;;5032900;28;20048;-70
2021/06/24 02:42:08;;;;;;;3.67;1.40;;;22.10;52.80;;;;;;5033011;28;20152;-70
2021/06/24 02:44:33;;;;;;;3.50;1.52;;;22.00;52.80;;;;;;5032683;28;20041;-69
2021/06/24 02:46:59;;;;;;;4.60;1.30;;;22.10;52.80;;;;;;5015112;28;20462;-69
2021/06/24 02:49:24;;;;;;;4.25;1.70;;;22.10;52.80;;;;;;5015095;28;20112;-69
2021/06/24 02:51:50;;;;;;;3.67;1.33;;;22.00;52.80;;;;;;5032763;28;20108;-69
2021/06/24 02:54:17;;;;;;;2.25;1.20;;;22.00;52.80;;;;;;5032830;28;20082;-70
2021/06/24 02:56:43;;;;;;;4.53;1.52;;;22.10;52.80;;;;;;5015064;28;20125;-69
2021/06/24 02:59:10;;;;;;;3.83;1.45;;;22.00;52.80;;;;;;5032631;28;20393;-69
2021/06/24 03:01:38;;;;;;;3.70;1.45;;;22.00;52.80;;;;;;5032756;28;20466;-69
2021/06/24 03:04:08;;;;;;;4.40;1.38;;;22.00;52.90;;;;;;5032927;28;20037;-69
2021/06/24 03:06:34;;;;;;;2.83;1.40;;;22.00;52.80;;;;;;5032841;28;20022;-69
2021/06/24 03:09:02;;;;;;;5.75;1.42;;;22.00;52.90;;;;;;5032689;28;20672;-69
2021/06/24 03:11:28;;;;;;;2.55;1.10;;;22.00;52.80;;;;;;5032528;28;20462;-69
2021/06/24 03:13:54;;;;;;;3.28;1.38;;;22.00;52.80;;;;;;5032693;28;20092;-69
2021/06/24 03:16:19;;;;;;;3.47;1.38;;;22.00;52.80;;;;;;5032895;28;20025;-69
2021/06/24 03:18:46;;;;;;;4.35;1.70;;;22.00;52.90;;;;;;5014901;28;20034;-69
2021/06/24 03:21:12;;;;;;;2.30;1.10;;;22.00;52.90;;;;;;5032590;28;20025;-70
2021/06/24 03:23:38;;;;;;;4.10;1.30;;;22.00;52.80;;;;;;5018893;28;20029;-70
2021/06/24 03:26:04;;;;;;;3.03;1.23;;;22.00;52.90;;;;;;5036512;28;20028;-70
2021/06/24 03:28:30;;;;;;;4.40;1.60;;;22.00;52.90;;;;;;5036887;28;20033;-69
2021/06/24 03:30:55;;;;;;;4.70;1.48;;;22.00;52.90;;;;;;5019095;28;20037;-71
2021/06/24 03:33:21;;;;;;;3.78;1.33;;;22.00;52.90;;;;;;5036500;28;20028;-70
2021/06/24 03:35:49;;;;;;;3.17;1.33;;;22.00;52.90;;;;;;5036479;28;20423;-70
2021/06/24 03:38:15;;;;;;;4.00;1.20;;;22.00;52.90;;;;;;5036291;28;20028;-69
2021/06/24 03:40:41;;;;;;;4.10;1.33;;;22.00;52.90;;;;;;5036292;28;20083;-69
2021/06/24 03:43:06;;;;;;;3.80;1.30;;;22.00;52.90;;;;;;5036249;28;20417;-69
2021/06/24 03:45:32;;;;;;;2.88;1.30;;;22.00;53.00;;;;;;5026008;28;20053;-69
2021/06/24 03:47:58;;;;;;;3.28;1.55;;;22.00;52.90;;;;;;5036222;28;20072;-69
2021/06/24 03:50:23;;;;;;;2.55;1.20;;;21.90;53.00;;;;;;5036305;28;20025;-69
2021/06/24 03:52:49;;;;;;;3.70;1.33;;;22.00;53.00;;;;;;5036043;28;20033;-70
2021/06/24 03:55:19;;;;;;;2.58;1.58;;;22.00;53.00;;;;;;5035918;28;20109;-69
2021/06/24 03:57:45;;;;;;;2.42;1.10;;;22.00;53.00;;;;;;5035878;28;20024;-69
2021/06/24 04:00:12;;;;;;;3.80;1.50;;;21.90;53.00;;;;;;5035958;28;20025;-69
2021/06/24 04:02:37;;;;;;;4.40;1.35;;;22.00;53.00;;;;;;5034519;28;20021;-69
2021/06/24 04:05:03;;;;;;;3.03;1.30;;;21.90;53.10;;;;;;5035840;28;20397;-69
2021/06/24 04:07:29;;;;;;;3.28;1.42;;;21.90;53.10;;;;;;5035755;28;20103;-69
2021/06/24 04:09:55;;;;;;;5.32;1.70;;;22.00;53.10;;;;;;5035612;28;20029;-69
2021/06/24 04:12:20;;;;;;;5.57;1.67;;;21.90;53.10;;;;;;5034412;28;20108;-69
2021/06/24 04:14:46;;;;;;;5.65;1.70;;;21.90;53.10;;;;;;5035763;28;20024;-69
2021/06/24 04:17:11;;;;;;;4.80;1.60;;;22.00;53.00;;;;;;5035476;28;20033;-69
2021/06/24 04:19:37;;;;;;;3.67;1.67;;;21.90;53.00;;;;;;5035429;28;20040;-69
2021/06/24 04:22:02;;;;;;;2.72;1.20;;;22.00;53.10;;;;;;5035362;28;20032;-69
2021/06/24 04:24:28;;;;;;;3.75;1.73;;;21.90;53.10;;;;;;5035292;28;20381;-69
2021/06/24 04:26:54;;;;;;;3.92;1.75;;;22.00;53.00;;;;;;5034070;28;20026;-69
2021/06/24 04:29:19;;;;;;;4.68;1.75;;;21.90;53.10;;;;;;5035291;28;20091;-69
2021/06/24 04:31:45;;;;;;;3.22;1.50;;;21.90;53.10;;;;;;5035237;28;20456;-69
2021/06/24 04:34:10;;;;;;;2.58;1.20;;;21.90;53.10;;;;;;5033986;28;20055;-69
2021/06/24 04:36:36;;;;;;;5.65;1.83;;;22.00;53.10;;;;;;5035199;28;20063;-69
2021/06/24 04:39:02;;;;;;;4.95;1.30;;;21.90;53.10;;;;;;5034875;28;20120;-69
2021/06/24 04:41:28;;;;;;;3.47;1.30;;;21.90;53.10;;;;;;5035051;28;20018;-69
2021/06/24 04:43:53;;;;;;;2.95;1.02;;;21.90;53.10;;;;;;5034995;28;20086;-69
2021/06/24 04:46:19;;;;;;;4.28;1.83;;;21.90;53.10;;;;;;5034741;28;20041;-69
2021/06/24 04:48:44;;;;;;;5.65;1.50;;;21.90;53.10;;;;;;5034936;28;20021;-69
2021/06/24 04:51:10;;;;;;;3.05;1.30;;;21.90;53.10;;;;;;5034910;28;20025;-69
2021/06/24 04:53:35;;;;;;;2.92;1.42;;;21.90;53.10;;;;;;5034837;28;20044;-69
2021/06/24 04:56:01;;;;;;;4.18;1.33;;;21.90;53.10;;;;;;5034837;28;20211;-69
2021/06/24 04:58:27;;;;;;;3.00;1.17;;;21.90;53.10;;;;;;5034712;28;20496;-69
2021/06/24 05:00:52;;;;;;;4.40;1.48;;;21.90;53.10;;;;;;5034680;28;20036;-69
2021/06/24 05:03:18;;;;;;;2.10;1.17;;;21.90;53.10;;;;;;5034658;28;20029;-69
2021/06/24 05:05:44;;;;;;;3.92;1.45;;;21.90;53.10;;;;;;5034592;28;20033;-70
2021/06/24 05:08:24;;;;;;;3.63;1.27;;;21.90;53.10;;;;;;5034638;28;20104;-69
2021/06/24 05:10:50;;;;;;;3.28;1.45;;;21.90;53.10;;;;;;5034758;28;20029;-69
2021/06/24 05:13:15;;;;;;;4.93;1.45;;;21.90;53.10;;;;;;5034453;28;20025;-69
2021/06/24 05:15:45;;;;;;;4.68;1.38;;;21.90;53.20;;;;;;5034477;28;20013;-69
2021/06/24 05:18:13;;;;;;;4.13;1.80;;;21.90;53.20;;;;;;5034257;28;20038;-69
2021/06/24 05:20:39;;;;;;;4.25;1.48;;;21.90;53.10;;;;;;5034084;28;20485;-69
2021/06/24 05:23:07;;;;;;;5.07;1.30;;;21.90;53.10;;;;;;5034281;28;20492;-69
2021/06/24 05:25:32;;;;;;;2.67;1.23;;;21.90;53.20;;;;;;5034310;28;20057;-69
2021/06/24 05:27:58;;;;;;;3.70;1.35;;;22.00;53.20;;;;;;5034150;28;20519;-69
2021/06/24 05:30:24;;;;;;;4.35;1.30;;;21.90;53.20;;;;;;5034095;28;20373;-69
2021/06/24 05:32:49;;;;;;;3.33;1.30;;;22.00;53.20;;;;;;5016273;28;20037;-69
2021/06/24 05:35:15;;;;;;;4.00;1.40;;;22.00;53.10;;;;;;5034136;28;20091;-69
2021/06/24 05:37:43;;;;;;;4.93;1.23;;;21.90;53.10;;;;;;5034073;28;20079;-69
2021/06/24 05:40:09;;;;;;;3.75;1.55;;;21.90;53.10;;;;;;5033737;28;20175;-69
2021/06/24 05:42:34;;;;;;;4.03;1.35;;;21.90;53.10;;;;;;5016107;28;20104;-69
2021/06/24 05:45:00;;;;;;;3.88;1.65;;;21.90;53.20;;;;;;5033288;28;20041;-70
2021/06/24 05:47:25;;;;;;;3.78;1.55;;;21.90;53.20;;;;;;5015983;28;20024;-69
2021/06/24 05:49:51;;;;;;;2.80;1.40;;;22.00;53.10;;;;;;5033620;28;20033;-69
2021/06/24 05:52:17;;;;;;;3.28;1.40;;;21.90;53.10;;;;;;5033652;28;20061;-69
2021/06/24 05:54:42;;;;;;;3.47;1.50;;;22.00;53.10;;;;;;5033552;28;20493;-69
2021/06/24 05:57:08;;;;;;;3.97;1.42;;;21.90;53.10;;;;;;5015804;28;20036;-70
2021/06/24 05:59:33;;;;;;;2.58;1.25;;;21.90;53.20;;;;;;5033335;28;20481;-70
2021/06/24 06:01:59;;;;;;;5.30;1.80;;;21.90;53.20;;;;;;5033508;28;20032;-70
2021/06/24 06:04:24;;;;;;;3.85;1.60;;;21.90;53.20;;;;;;5033441;28;20026;-69
2021/06/24 06:06:50;;;;;;;4.10;1.67;;;21.90;53.10;;;;;;5033376;28;20498;-69
2021/06/24 06:09:15;;;;;;;2.83;1.58;;;22.00;53.10;;;;;;5033355;28;20029;-69
2021/06/24 06:11:43;;;;;;;3.97;1.52;;;22.00;53.10;;;;;;5033338;28;20477;-69
2021/06/24 06:14:09;;;;;;;3.30;1.38;;;22.00;53.10;;;;;;5015392;28;20026;-69
2021/06/24 06:16:35;;;;;;;3.53;1.42;;;22.00;53.10;;;;;;5033188;28;20043;-69
2021/06/24 06:19:00;;;;;;;2.60;1.30;;;22.00;53.10;;;;;;5033057;28;20481;-69
2021/06/24 06:21:29;;;;;;;3.08;1.50;;;22.00;53.00;;;;;;5033080;28;20041;-69
2021/06/24 06:23:55;;;;;;;2.95;1.63;;;22.00;53.00;;;;;;5032956;28;20060;-69
2021/06/24 06:26:20;;;;;;;3.03;1.40;;;22.00;53.00;;;;;;5033007;28;20030;-69
2021/06/24 06:28:46;;;;;;;2.25;1.10;;;22.00;53.00;;;;;;5032826;28;20116;-69
2021/06/24 06:31:11;;;;;;;3.78;1.50;;;22.00;53.00;;;;;;5032802;28;20064;-70
2021/06/24 06:33:37;;;;;;;4.15;1.88;;;22.00;53.00;;;;;;5015142;28;20049;-69
2021/06/24 06:36:03;;;;;;;3.17;1.20;;;22.00;53.00;;;;;;5033245;28;20025;-70
2021/06/24 06:38:29;;;;;;;3.83;1.45;;;22.00;53.00;;;;;;5015184;28;20033;-69
2021/06/24 06:40:54;;;;;;;4.45;1.58;;;22.00;53.00;;;;;;5032954;28;20488;-69
2021/06/24 06:43:20;;;;;;;2.78;1.30;;;22.00;53.00;;;;;;5032769;28;20156;-69
2021/06/24 06:45:47;;;;;;;3.05;1.17;;;22.00;52.90;;;;;;5024647;28;20502;-69
2021/06/24 06:48:13;;;;;;;3.75;1.40;;;22.00;52.90;;;;;;5033081;28;20422;-69
2021/06/24 06:50:39;;;;;;;5.03;1.60;;;22.00;52.90;;;;;;5032688;28;20346;-69
2021/06/24 06:53:06;;;;;;;4.03;1.58;;;22.00;52.90;;;;;;5032818;28;20044;-69
2021/06/24 06:55:32;;;;;;;3.80;1.35;;;22.00;52.90;;;;;;5033170;28;20029;-69
2021/06/24 06:57:59;;;;;;;3.45;1.27;;;22.00;52.80;;;;;;5032061;28;20108;-69
2021/06/24 07:00:26;;;;;;;4.50;1.40;;;22.00;52.80;;;;;;5032692;28;20096;-70
2021/06/24 07:02:52;;;;;;;4.40;1.50;;;22.10;52.80;;;;;;5032728;28;20108;-69
2021/06/24 07:05:18;;;;;;;2.92;1.35;;;22.00;52.80;;;;;;5031405;28;20104;-69
2021/06/24 07:07:44;;;;;;;4.68;1.42;;;22.00;52.80;;;;;;5032747;28;20021;-69
2021/06/24 07:10:10;;;;;;;3.65;1.40;;;22.00;52.80;;;;;;5032653;28;20028;-70
2021/06/24 07:12:35;;;;;;;4.13;1.50;;;22.00;52.80;;;;;;5031376;28;20029;-70
2021/06/24 07:15:01;;;;;;;5.53;1.35;;;22.00;52.80;;;;;;5027936;28;20453;-69
2021/06/24 07:17:26;;;;;;;2.97;1.48;;;22.00;52.90;;;;;;5027797;28;20469;-70
2021/06/24 07:19:52;;;;;;;7.05;1.65;;;22.00;52.80;;;;;;5030473;28;20059;-69
2021/06/24 07:22:18;;;;;;;4.03;1.55;;;22.00;52.90;;;;;;5032080;28;20022;-68
2021/06/24 07:24:43;;;;;;;3.90;1.33;;;22.00;52.80;;;;;;5032041;28;20029;-69
2021/06/24 07:27:09;;;;;;;5.65;1.90;;;22.10;52.80;;;;;;5031617;28;20473;-69
2021/06/24 07:29:35;;;;;;;7.15;2.90;;;22.10;52.80;;;;;;5030660;28;20069;-70
2021/06/24 07:32:00;;;;;;;7.68;2.80;;;22.00;53.40;;;;;;5012296;28;20113;-69
2021/06/24 07:34:26;;;;;;;8.38;3.42;;;22.00;53.70;;;;;;5014166;28;20036;-68
2021/06/24 07:36:51;;;;;;;9.93;3.33;;;22.00;53.90;;;;;;5031282;28;20028;-68
2021/06/24 07:39:17;;;;;;;8.52;3.25;;;22.00;54.20;;;;;;5023313;28;20113;-68
2021/06/24 07:41:42;;;;;;;9.32;3.50;;;21.90;54.20;;;;;;5011961;28;20125;-69
2021/06/24 07:44:08;;;;;;;8.27;3.42;;;21.90;54.30;;;;;;5011837;28;20053;-69
2021/06/24 07:46:33;;;;;;;12.38;3.58;;;21.90;54.30;;;;;;5010771;28;20062;-69
2021/06/24 07:48:59;;;;;;;7.75;3.67;;;21.90;54.40;;;;;;5011605;28;20034;-68
2021/06/24 07:51:24;;;;;;;8.55;3.60;;;21.90;54.50;;;;;;5011777;28;20044;-68
2021/06/24 07:53:50;;;;;;;11.85;4.43;;;21.90;54.80;;;;;;5011783;28;20037;-68
2021/06/24 07:56:16;;;;;;;9.48;4.03;;;21.90;54.80;;;;;;5009706;28;20032;-68
2021/06/24 07:58:42;;;;;;;10.68;4.13;;;21.80;55.00;;;;;;5011589;28;20037;-68
2021/06/24 08:01:08;;;;;;;10.93;4.15;;;21.80;55.10;;;;;;5011693;28;20048;-68
2021/06/24 08:03:35;;;;;;;9.40;3.80;;;21.80;55.10;;;;;;5011716;28;20022;-68
2021/06/24 08:06:02;;;;;;;7.47;2.92;;;21.90;55.10;;;;;;5010614;28;20366;-69
2021/06/24 08:08:28;;;;;;;7.45;2.70;;;21.90;54.70;;;;;;5013994;28;20025;-69
2021/06/24 08:10:55;;;;;;;6.13;2.22;;;22.00;54.60;;;;;;5015334;28;20335;-68
2021/06/24 08:13:21;;;;;;;6.57;2.03;;;22.00;54.10;;;;;;5015282;28;20088;-69
2021/06/24 08:15:47;;;;;;;8.45;2.33;;;22.10;53.70;;;;;;5014371;28;20490;-69
2021/06/24 08:18:13;;;;;;;7.75;2.58;;;22.20;53.60;;;;;;5015560;28;20065;-70
2021/06/24 08:20:39;;;;;;;5.38;1.90;;;22.20;53.60;;;;;;5015174;28;20157;-69
2021/06/24 08:23:04;;;;;;;6.13;2.35;;;22.30;53.40;;;;;;5015545;28;20501;-69
2021/06/24 08:25:30;;;;;;;6.93;2.00;;;22.30;53.20;;;;;;5014988;28;20041;-69
2021/06/24 08:27:55;;;;;;;6.97;1.73;;;22.30;53.20;;;;;;5015298;28;20355;-69
2021/06/24 08:30:21;;;;;;;7.20;2.08;;;22.40;53.10;;;;;;5015376;28;20025;-69
2021/06/24 08:32:48;;;;;;;4.82;1.60;;;22.40;53.00;;;;;;4998210;28;20018;-69
2021/06/24 08:35:14;;;;;;;7.15;2.00;;;22.30;53.10;;;;;;5020842;28;20501;-69
2021/06/24 08:37:40;;;;;;;8.48;2.33;;;22.40;53.10;;;;;;5015839;28;20026;-69
2021/06/24 08:40:08;;;;;;;5.35;2.00;;;22.40;53.10;;;;;;5016199;28;20034;-69
2021/06/24 08:42:34;;;;;;;5.43;2.10;;;22.40;53.10;;;;;;5013803;28;20116;-69
2021/06/24 08:45:03;;;;;;;6.97;2.33;;;22.40;53.10;;;;;;5014772;28;20053;-69
2021/06/24 08:47:30;;;;;;;10.48;2.50;;;22.40;53.00;;;;;;5014714;28;20025;-68
2021/06/24 08:49:57;;;;;;;5.80;1.95;;;22.40;52.90;;;;;;5015296;28;20022;-69
2021/06/24 08:52:23;;;;;;;7.05;2.35;;;22.50;52.90;;;;;;5015299;28;20427;-69
2021/06/24 08:54:48;;;;;;;6.30;2.00;;;22.50;52.90;;;;;;5014847;28;20022;-69
2021/06/24 08:57:15;;;;;;;4.68;1.85;;;22.50;52.90;;;;;;4996854;28;20033;-69
2021/06/24 08:59:41;;;;;;;4.63;1.67;;;22.50;52.90;;;;;;5014638;28;20045;-69
2021/06/24 09:02:11;;;;;;;5.35;2.08;;;22.50;52.90;;;;;;5014955;28;20339;-69
2021/06/24 09:04:39;;;;;;;6.72;1.98;;;22.50;52.90;;;;;;5014668;28;20033;-69
2021/06/24 09:07:14;;;;;;;5.88;1.77;;;22.60;52.80;;;;;;5013723;28;20382;-69
2021/06/24 09:09:49;;;;;;;7.40;2.00;;;22.60;52.80;;;;;;4996998;28;20274;-69
2021/06/24 09:12:16;;;;;;;5.18;1.80;;;22.50;52.80;;;;;;5014720;28;20025;-68
2021/06/24 09:14:47;;;;;;;4.75;1.60;;;22.50;52.80;;;;;;5013058;28;20155;-69
2021/06/24 09:17:34;;;;;;;4.78;1.70;;;22.60;52.90;;;;;;5013647;28;20049;-69
2021/06/24 09:20:00;;;;;;;5.13;2.00;;;22.60;52.80;;;;;;5012154;28;20037;-69
2021/06/24 09:22:25;;;;;;;4.90;1.90;;;22.60;52.80;;;;;;5014110;28;20022;-69
2021/06/24 09:24:51;;;;;;;6.70;2.15;;;22.60;52.80;;;;;;5014032;28;20026;-69
2021/06/24 09:27:17;;;;;;;6.72;2.33;;;22.60;52.80;;;;;;5013624;28;20048;-69
2021/06/24 09:29:49;;;;;;;7.28;2.13;;;22.60;52.80;;;;;;5014099;28;20057;-69
2021/06/24 09:32:33;;;;;;;6.57;1.92;;;22.70;52.70;;;;;;5013912;28;20053;-69
2021/06/24 09:35:02;;;;;;;5.95;1.83;;;22.70;52.70;;;;;;4995888;28;20022;-68
2021/06/24 09:37:28;;;;;;;5.93;1.70;;;22.70;52.80;;;;;;5013626;28;20040;-69
2021/06/24 09:39:55;;;;;;;5.28;1.83;;;22.70;52.80;;;;;;5013645;28;20041;-69
2021/06/24 09:42:21;;;;;;;4.22;1.63;;;22.70;52.80;;;;;;5014055;28;20037;-69
2021/06/24 09:44:48;;;;;;;6.18;1.92;;;22.70;52.80;;;;;;5013231;28;20046;-68
2021/06/24 09:47:27;;;;;;;6.22;1.90;;;22.70;52.70;;;;;;5013255;28;20026;-70
2021/06/24 09:49:58;;;;;;;4.60;1.55;;;22.70;52.70;;;;;;5013713;28;20022;-70
2021/06/24 09:52:24;;;;;;;5.80;1.70;;;22.70;52.70;;;;;;4996139;28;20180;-70
2021/06/24 09:55:04;;;;;;;3.90;1.60;;;22.80;52.60;;;;;;5013647;28;20100;-70
2021/06/24 09:57:30;;;;;;;5.60;2.10;;;22.80;52.60;;;;;;5013392;28;20025;-69
2021/06/24 09:59:56;;;;;;;4.85;1.85;;;22.80;52.60;;;;;;5013466;28;20079;-69
2021/06/24 10:02:21;;;;;;;5.10;1.83;;;22.80;52.60;;;;;;5014412;28;20030;-70
2021/06/24 10:04:48;;;;;;;4.90;1.80;;;22.80;52.50;;;;;;5013009;28;20037;-70
2021/06/24 10:07:15;;;;;;;6.57;1.98;;;22.90;52.60;;;;;;5012656;28;20485;-69
2021/06/24 10:09:44;;;;;;;6.80;2.15;;;22.80;52.50;;;;;;4996257;28;20209;-70
2021/06/24 10:12:19;;;;;;;5.13;1.92;;;22.90;52.50;;;;;;5013252;28;20025;-70
2021/06/24 10:14:46;;;;;;;6.03;1.77;;;22.90;52.40;;;;;;5034049;28;20022;-70
2021/06/24 10:17:11;;;;;;;7.22;2.00;;;22.90;52.40;;;;;;5033342;28;20025;-70
2021/06/24 10:19:42;;;;;;;5.95;1.70;;;22.90;52.50;;;;;;5033977;28;20033;-70
2021/06/24 10:22:22;;;;;;;5.15;2.10;;;22.90;52.50;;;;;;5033834;28;20022;-70
2021/06/24 10:25:00;;;;;;;6.28;1.95;;;22.90;52.60;;;;;;5033627;28;20397;-69
2021/06/24 10:27:34;;;;;;;5.72;1.80;;;22.90;52.60;;;;;;5016192;28;20022;-67
2021/06/24 10:30:14;;;;;;;5.97;2.20;;;22.90;52.60;;;;;;5033999;28;20143;-67
2021/06/24 10:32:41;;;;;;;4.32;1.60;;;22.90;52.50;;;;;;5015352;28;20038;-67
2021/06/24 10:35:24;;;;;;;6.25;1.88;;;22.90;52.50;;;;;;5034651;28;20014;-68
2021/06/24 10:37:51;;;;;;;7.37;2.03;;;22.90;52.50;;;;;;5022314;28;20031;-67
2021/06/24 10:40:23;;;;;;;7.90;1.90;;;22.90;52.50;;;;;;5022885;28;20025;-67
2021/06/24 10:42:56;;;;;;;6.00;1.88;;;22.90;52.40;;;;;;5035963;28;20053;-65
2021/06/24 10:45:24;;;;;;;5.32;1.88;;;23.00;52.40;;;;;;5033448;28;20056;-66
2021/06/24 10:47:49;;;;;;;7.47;2.00;;;23.00;52.40;;;;;;5032584;28;20060;-66
2021/06/24 10:52:54;;;;;;;4.22;1.80;;;23.00;52.40;;;;;;5032512;28;20568;-64
2021/06/24 10:55:39;;;;;;;4.32;2.08;;;23.00;52.30;;;;;;5032258;28;20065;-66
2021/06/24 10:58:10;;;;;;;6.18;2.00;;;23.00;52.40;;;;;;5033181;28;20021;-65
2021/06/24 11:00:45;;;;;;;7.55;2.20;;;23.00;52.40;;;;;;5032459;28;20029;-67
2021/06/24 11:03:13;;;;;;;7.00;1.88;;;23.10;52.40;;;;;;5032244;28;20021;-63
2021/06/24 11:05:52;;;;;;;6.35;1.95;;;23.00;52.40;;;;;;5032595;28;20462;-63
2021/06/24 11:08:28;;;;;;;9.85;2.25;;;23.00;52.40;;;;;;5033380;28;20029;-66
2021/06/24 11:11:07;;;;;;;5.22;2.15;;;23.00;52.50;;;;;;5033445;28;20025;-66
2021/06/24 11:13:39;;;;;;;7.50;1.98;;;23.00;52.50;;;;;;5033113;28;20029;-65
2021/06/24 11:16:13;;;;;;;5.20;2.10;;;23.00;52.50;;;;;;5033445;28;20018;-65
2021/06/24 11:18:45;;;;;;;6.10;2.08;;;23.00;52.40;;;;;;5015552;28;20120;-65
2021/06/24 11:21:13;;;;;;;5.95;2.50;;;23.00;52.50;;;;;;5033566;28;20043;-66
2021/06/24 11:23:44;;;;;;;6.40;2.10;;;23.00;52.40;;;;;;5019926;28;20022;-67
2021/06/24 11:26:11;;;;;;;3.85;1.77;;;23.10;52.40;;;;;;5042460;28;20033;-66
2021/06/24 11:28:49;;;;;;;7.70;1.88;;;23.10;52.50;;;;;;5043128;28;20029;-65
2021/06/24 11:31:17;;;;;;;5.43;2.00;;;23.10;52.50;;;;;;5042421;28;20022;-67
2021/06/24 11:33:56;;;;;;;4.93;1.70;;;23.10;52.40;;;;;;5041710;28;20085;-66
2021/06/24 11:36:21;;;;;;;5.85;2.22;;;23.10;52.40;;;;;;5044335;28;20060;-66
2021/06/24 11:38:49;;;;;;;5.40;2.00;;;23.10;52.40;;;;;;5041662;28;20405;-65
2021/06/24 11:41:20;;;;;;;6.95;2.22;;;23.10;52.40;;;;;;5042535;28;20029;-65
2021/06/24 11:43:58;;;;;;;6.32;2.03;;;23.10;52.40;;;;;;5043138;28;20025;-65
2021/06/24 11:46:29;;;;;;;4.75;1.65;;;23.10;52.40;;;;;;5035449;28;20401;-65
2021/06/24 11:49:25;;;;;;;5.00;1.88;;;23.10;52.40;;;;;;5041135;28;20022;-65
2021/06/24 12:00:47;;;;;;;4.88;1.77;;;23.20;52.40;;;;;;5036074;28;20068;-66
2021/06/24 12:03:20;;;;;;;4.45;1.70;;;23.20;52.40;;;;;;5035225;28;20082;-65
2021/06/24 12:05:53;;;;;;;6.57;1.88;;;23.20;52.40;;;;;;5035208;28;20036;-65
2021/06/24 12:08:26;;;;;;;4.43;1.70;;;23.10;52.40;;;;;;5035814;28;20447;-65
2021/06/24 12:11:07;;;;;;;5.05;1.80;;;23.20;52.40;;;;;;5035812;28;20018;-65
2021/06/24 12:13:35;;;;;;;5.03;2.00;;;23.10;52.40;;;;;;5034679;28;20029;-64
2021/06/24 12:16:01;;;;;;;5.22;1.70;;;23.20;52.40;;;;;;5035035;28;20022;-65
2021/06/24 12:18:35;;;;;;;5.30;2.00;;;23.10;52.40;;;;;;5035210;28;20029;-67
2021/06/24 12:21:21;;;;;;;5.30;1.98;;;23.10;52.40;;;;;;5018028;28;20397;-65
2021/06/24 12:23:48;;;;;;;6.40;2.17;;;23.10;52.50;;;;;;5017062;28;20090;-66
2021/06/24 12:26:16;;;;;;;8.52;2.38;;;23.20;52.50;;;;;;5034542;28;20489;-65
2021/06/24 12:28:43;;;;;;;4.57;1.95;;;23.10;52.50;;;;;;5035779;28;20034;-65
2021/06/24 12:31:23;;;;;;;4.30;1.90;;;23.10;52.50;;;;;;5035080;28;20075;-64
2021/06/24 12:33:50;;;;;;;7.13;2.15;;;23.10;52.50;;;;;;5034840;28;20034;-66
2021/06/24 12:36:31;;;;;;;7.22;2.20;;;23.10;52.50;;;;;;5034332;28;20361;-65
2021/06/24 12:38:56;;;;;;;3.88;1.70;;;23.10;52.50;;;;;;5034737;28;20457;-65
2021/06/24 12:41:22;;;;;;;6.28;1.92;;;23.10;52.60;;;;;;5034760;28;20033;-64
2021/06/24 12:43:48;;;;;;;4.95;1.80;;;23.10;52.60;;;;;;5034599;28;20025;-64
2021/06/24 12:46:14;;;;;;;3.35;1.65;;;23.10;52.60;;;;;;5033972;28;20048;-64
2021/06/24 12:48:45;;;;;;;5.00;1.98;;;23.10;52.60;;;;;;5034555;28;20021;-64
2021/06/24 12:51:17;;;;;;;5.28;1.88;;;23.10;52.60;;;;;;5016903;28;20022;-65
2021/06/24 12:53:45;;;;;;;7.00;2.28;;;23.10;52.50;;;;;;5033967;28;20385;-65
2021/06/24 12:56:25;;;;;;;4.63;1.92;;;23.10;52.60;;;;;;5033175;28;20025;-65
2021/06/24 12:58:51;;;;;;;6.30;2.17;;;23.10;52.50;;;;;;5034191;28;20021;-65